sensor_id;sensor_type;location;lat;lon;timestamp;P1;durP1;ratioP1;P2;durP2;ratioP2
32082;SDS011;18597;48.328;7.932;2023-07-13T00:01:57;1.80;;;1.70;;
32082;SDS011;18597;48.328;7.932;2023-07-13T00:04:24;2.13;;;2.03;;
32082;SDS011;18597;48.328;7.932;2023-07-13T00:06:50;3.20;;;1.83;;
32082;SDS011;18597;48.328;7.932;2023-07-13T00:09:17;1.63;;;1.53;;
32082;SDS011;18597;48.328;7.932;2023-07-13T00:11:44;4.43;;;2.17;;
32082;SDS011;18597;48.328;7.932;2023-07-13T00:14:12;1.60;;;1.60;;
32082;SDS011;18597;48.328;7.932;2023-07-13T00:16:39;1.93;;;1.50;;
32082;SDS011;18597;48.328;7.932;2023-07-13T00:19:09;4.60;;;2.40;;
32082;SDS011;18597;48.328;7.932;2023-07-13T00:21:36;2.77;;;1.43;;
32082;SDS011;18597;48.328;7.932;2023-07-13T00:24:03;4.73;;;2.00;;
32082;SDS011;18597;48.328;7.932;2023-07-13T00:26:31;3.10;;;1.57;;
32082;SDS011;18597;48.328;7.932;2023-07-13T00:28:57;2.40;;;1.70;;
32082;SDS011;18597;48.328;7.932;2023-07-13T00:31:24;12.83;;;3.50;;
32082;SDS011;18597;48.328;7.932;2023-07-13T00:33:50;2.87;;;1.53;;
32082;SDS011;18597;48.328;7.932;2023-07-13T00:36:16;4.67;;;2.57;;
32082;SDS011;18597;48.328;7.932;2023-07-13T00:38:42;2.97;;;2.20;;
32082;SDS011;18597;48.328;7.932;2023-07-13T00:41:09;2.53;;;2.33;;
32082;SDS011;18597;48.328;7.932;2023-07-13T00:43:35;5.37;;;2.00;;
32082;SDS011;18597;48.328;7.932;2023-07-13T00:48:36;3.43;;;1.73;;
32082;SDS011;18597;48.328;7.932;2023-07-13T00:51:03;6.20;;;1.87;;
32082;SDS011;18597;48.328;7.932;2023-07-13T00:53:30;2.37;;;1.43;;
32082;SDS011;18597;48.328;7.932;2023-07-13T00:55:58;2.67;;;1.50;;
32082;SDS011;18597;48.328;7.932;2023-07-13T00:58:25;3.43;;;2.00;;
32082;SDS011;18597;48.328;7.932;2023-07-13T01:00:52;7.73;;;2.63;;
32082;SDS011;18597;48.328;7.932;2023-07-13T01:03:18;7.07;;;2.60;;
32082;SDS011;18597;48.328;7.932;2023-07-13T01:05:45;4.73;;;2.70;;
32082;SDS011;18597;48.328;7.932;2023-07-13T01:08:14;2.60;;;2.40;;
32082;SDS011;18597;48.328;7.932;2023-07-13T01:10:40;27.87;;;4.13;;
32082;SDS011;18597;48.328;7.932;2023-07-13T01:13:15;4.17;;;2.47;;
32082;SDS011;18597;48.328;7.932;2023-07-13T01:15:43;2.80;;;2.40;;
32082;SDS011;18597;48.328;7.932;2023-07-13T01:18:13;3.70;;;2.70;;
32082;SDS011;18597;48.328;7.932;2023-07-13T01:20:49;5.73;;;2.20;;
32082;SDS011;18597;48.328;7.932;2023-07-13T01:23:18;6.87;;;2.37;;
32082;SDS011;18597;48.328;7.932;2023-07-13T01:25:44;4.43;;;1.50;;
32082;SDS011;18597;48.328;7.932;2023-07-13T01:28:10;5.73;;;2.50;;
32082;SDS011;18597;48.328;7.932;2023-07-13T01:30:37;3.20;;;1.73;;
32082;SDS011;18597;48.328;7.932;2023-07-13T01:33:06;1.73;;;1.73;;
32082;SDS011;18597;48.328;7.932;2023-07-13T01:35:33;4.10;;;1.70;;
32082;SDS011;18597;48.328;7.932;2023-07-13T01:37:59;7.90;;;1.80;;
32082;SDS011;18597;48.328;7.932;2023-07-13T01:40:26;1.77;;;1.67;;
32082;SDS011;18597;48.328;7.932;2023-07-13T01:42:53;2.20;;;1.73;;
32082;SDS011;18597;48.328;7.932;2023-07-13T01:45:19;5.33;;;1.90;;
32082;SDS011;18597;48.328;7.932;2023-07-13T01:47:45;2.00;;;1.90;;
32082;SDS011;18597;48.328;7.932;2023-07-13T01:50:11;5.00;;;1.60;;
32082;SDS011;18597;48.328;7.932;2023-07-13T01:52:36;6.10;;;2.00;;
32082;SDS011;18597;48.328;7.932;2023-07-13T01:55:02;2.73;;;1.60;;
32082;SDS011;18597;48.328;7.932;2023-07-13T01:57:29;1.90;;;1.47;;
32082;SDS011;18597;48.328;7.932;2023-07-13T01:59:55;1.67;;;1.53;;
32082;SDS011;18597;48.328;7.932;2023-07-13T02:02:20;3.80;;;2.80;;
32082;SDS011;18597;48.328;7.932;2023-07-13T02:04:46;4.30;;;1.60;;
32082;SDS011;18597;48.328;7.932;2023-07-13T02:07:12;4.73;;;2.33;;
32082;SDS011;18597;48.328;7.932;2023-07-13T02:09:38;2.17;;;2.07;;
32082;SDS011;18597;48.328;7.932;2023-07-13T02:12:04;3.60;;;1.83;;
32082;SDS011;18597;48.328;7.932;2023-07-13T02:14:30;3.43;;;1.47;;
32082;SDS011;18597;48.328;7.932;2023-07-13T02:16:56;2.77;;;1.90;;
32082;SDS011;18597;48.328;7.932;2023-07-13T02:19:22;2.03;;;1.90;;
32082;SDS011;18597;48.328;7.932;2023-07-13T02:21:48;1.77;;;1.67;;
32082;SDS011;18597;48.328;7.932;2023-07-13T02:24:13;5.13;;;2.70;;
32082;SDS011;18597;48.328;7.932;2023-07-13T02:26:42;3.83;;;2.53;;
32082;SDS011;18597;48.328;7.932;2023-07-13T02:29:09;2.53;;;2.43;;
32082;SDS011;18597;48.328;7.932;2023-07-13T02:31:36;3.43;;;2.57;;
32082;SDS011;18597;48.328;7.932;2023-07-13T02:34:02;2.30;;;2.10;;
32082;SDS011;18597;48.328;7.932;2023-07-13T02:36:29;3.40;;;2.27;;
32082;SDS011;18597;48.328;7.932;2023-07-13T02:38:55;2.20;;;2.10;;
32082;SDS011;18597;48.328;7.932;2023-07-13T02:41:26;5.50;;;1.90;;
32082;SDS011;18597;48.328;7.932;2023-07-13T02:43:51;5.70;;;2.23;;
32082;SDS011;18597;48.328;7.932;2023-07-13T02:46:18;5.07;;;2.43;;
32082;SDS011;18597;48.328;7.932;2023-07-13T02:48:44;2.83;;;1.93;;
32082;SDS011;18597;48.328;7.932;2023-07-13T02:51:11;5.20;;;2.63;;
32082;SDS011;18597;48.328;7.932;2023-07-13T02:53:37;7.30;;;2.40;;
32082;SDS011;18597;48.328;7.932;2023-07-13T02:56:04;3.80;;;2.03;;
32082;SDS011;18597;48.328;7.932;2023-07-13T02:58:30;2.40;;;2.17;;
32082;SDS011;18597;48.328;7.932;2023-07-13T03:00:55;4.03;;;2.40;;
32082;SDS011;18597;48.328;7.932;2023-07-13T03:03:22;7.20;;;2.73;;
32082;SDS011;18597;48.328;7.932;2023-07-13T03:05:57;3.03;;;2.03;;
32082;SDS011;18597;48.328;7.932;2023-07-13T03:08:27;5.70;;;1.80;;
32082;SDS011;18597;48.328;7.932;2023-07-13T03:11:00;3.83;;;1.90;;
32082;SDS011;18597;48.328;7.932;2023-07-13T03:13:28;6.27;;;2.70;;
32082;SDS011;18597;48.328;7.932;2023-07-13T03:15:54;4.83;;;2.27;;
32082;SDS011;18597;48.328;7.932;2023-07-13T03:18:20;3.30;;;2.80;;
32082;SDS011;18597;48.328;7.932;2023-07-13T03:20:46;3.00;;;2.17;;
32082;SDS011;18597;48.328;7.932;2023-07-13T03:23:15;3.03;;;2.80;;
32082;SDS011;18597;48.328;7.932;2023-07-13T03:25:40;4.57;;;2.83;;
32082;SDS011;18597;48.328;7.932;2023-07-13T03:28:06;4.17;;;2.40;;
32082;SDS011;18597;48.328;7.932;2023-07-13T03:30:32;6.67;;;2.00;;
32082;SDS011;18597;48.328;7.932;2023-07-13T03:32:58;6.83;;;2.60;;
32082;SDS011;18597;48.328;7.932;2023-07-13T03:35:24;4.40;;;2.80;;
32082;SDS011;18597;48.328;7.932;2023-07-13T03:37:49;4.13;;;3.00;;
32082;SDS011;18597;48.328;7.932;2023-07-13T03:40:16;2.30;;;2.20;;
32082;SDS011;18597;48.328;7.932;2023-07-13T03:42:42;7.00;;;3.00;;
32082;SDS011;18597;48.328;7.932;2023-07-13T03:45:08;7.30;;;2.30;;
32082;SDS011;18597;48.328;7.932;2023-07-13T03:47:34;2.93;;;2.73;;
32082;SDS011;18597;48.328;7.932;2023-07-13T03:49:59;4.80;;;2.60;;
32082;SDS011;18597;48.328;7.932;2023-07-13T03:52:25;2.50;;;2.40;;
32082;SDS011;18597;48.328;7.932;2023-07-13T03:54:51;3.93;;;3.60;;
32082;SDS011;18597;48.328;7.932;2023-07-13T03:57:17;11.33;;;2.90;;
32082;SDS011;18597;48.328;7.932;2023-07-13T03:59:43;4.20;;;2.60;;
32082;SDS011;18597;48.328;7.932;2023-07-13T04:02:09;5.50;;;3.07;;
32082;SDS011;18597;48.328;7.932;2023-07-13T04:04:35;9.53;;;2.43;;
32082;SDS011;18597;48.328;7.932;2023-07-13T04:07:01;2.30;;;2.10;;
32082;SDS011;18597;48.328;7.932;2023-07-13T04:09:28;2.77;;;2.23;;
32082;SDS011;18597;48.328;7.932;2023-07-13T04:11:53;2.30;;;2.20;;
32082;SDS011;18597;48.328;7.932;2023-07-13T04:14:19;2.43;;;2.13;;
32082;SDS011;18597;48.328;7.932;2023-07-13T04:16:45;4.83;;;2.60;;
32082;SDS011;18597;48.328;7.932;2023-07-13T04:19:11;1.80;;;1.70;;
32082;SDS011;18597;48.328;7.932;2023-07-13T04:21:38;2.47;;;2.27;;
32082;SDS011;18597;48.328;7.932;2023-07-13T04:24:03;4.97;;;2.93;;
32082;SDS011;18597;48.328;7.932;2023-07-13T04:26:30;3.03;;;2.13;;
32082;SDS011;18597;48.328;7.932;2023-07-13T04:28:55;2.27;;;2.17;;
32082;SDS011;18597;48.328;7.932;2023-07-13T04:31:22;3.10;;;2.90;;
32082;SDS011;18597;48.328;7.932;2023-07-13T04:33:48;3.80;;;2.63;;
32082;SDS011;18597;48.328;7.932;2023-07-13T04:36:16;2.97;;;2.60;;
32082;SDS011;18597;48.328;7.932;2023-07-13T04:38:42;4.57;;;2.50;;
32082;SDS011;18597;48.328;7.932;2023-07-13T04:41:08;5.40;;;2.73;;
32082;SDS011;18597;48.328;7.932;2023-07-13T04:43:34;9.67;;;2.40;;
32082;SDS011;18597;48.328;7.932;2023-07-13T04:46:03;3.30;;;2.40;;
32082;SDS011;18597;48.328;7.932;2023-07-13T04:48:32;4.37;;;2.60;;
32082;SDS011;18597;48.328;7.932;2023-07-13T04:50:59;2.30;;;2.10;;
32082;SDS011;18597;48.328;7.932;2023-07-13T04:53:26;2.60;;;2.37;;
32082;SDS011;18597;48.328;7.932;2023-07-13T04:55:52;4.20;;;3.40;;
32082;SDS011;18597;48.328;7.932;2023-07-13T04:58:19;6.00;;;2.00;;
32082;SDS011;18597;48.328;7.932;2023-07-13T05:00:46;2.53;;;2.43;;
32082;SDS011;18597;48.328;7.932;2023-07-13T05:03:12;2.80;;;2.60;;
32082;SDS011;18597;48.328;7.932;2023-07-13T05:05:38;3.30;;;2.40;;
32082;SDS011;18597;48.328;7.932;2023-07-13T05:08:04;2.63;;;2.50;;
32082;SDS011;18597;48.328;7.932;2023-07-13T05:10:30;2.30;;;2.13;;
32082;SDS011;18597;48.328;7.932;2023-07-13T05:12:56;4.60;;;2.07;;
32082;SDS011;18597;48.328;7.932;2023-07-13T05:15:22;2.03;;;1.93;;
32082;SDS011;18597;48.328;7.932;2023-07-13T05:17:50;2.20;;;2.10;;
32082;SDS011;18597;48.328;7.932;2023-07-13T05:20:16;4.07;;;2.27;;
32082;SDS011;18597;48.328;7.932;2023-07-13T05:22:44;3.20;;;1.93;;
32082;SDS011;18597;48.328;7.932;2023-07-13T05:25:12;3.47;;;2.60;;
32082;SDS011;18597;48.328;7.932;2023-07-13T05:27:39;3.63;;;2.60;;
32082;SDS011;18597;48.328;7.932;2023-07-13T05:30:05;3.63;;;2.43;;
32082;SDS011;18597;48.328;7.932;2023-07-13T05:32:32;3.20;;;2.87;;
32082;SDS011;18597;48.328;7.932;2023-07-13T05:34:58;3.37;;;2.87;;
32082;SDS011;18597;48.328;7.932;2023-07-13T05:37:24;6.73;;;2.70;;
32082;SDS011;18597;48.328;7.932;2023-07-13T05:39:50;3.53;;;2.37;;
32082;SDS011;18597;48.328;7.932;2023-07-13T05:42:16;5.23;;;1.80;;
32082;SDS011;18597;48.328;7.932;2023-07-13T05:44:42;8.27;;;3.07;;
32082;SDS011;18597;48.328;7.932;2023-07-13T05:47:08;4.30;;;3.13;;
32082;SDS011;18597;48.328;7.932;2023-07-13T05:49:34;6.63;;;2.53;;
32082;SDS011;18597;48.328;7.932;2023-07-13T05:51:59;2.93;;;2.73;;
32082;SDS011;18597;48.328;7.932;2023-07-13T05:54:26;4.20;;;2.00;;
32082;SDS011;18597;48.328;7.932;2023-07-13T05:56:52;2.50;;;1.90;;
32082;SDS011;18597;48.328;7.932;2023-07-13T05:59:18;2.00;;;1.90;;
32082;SDS011;18597;48.328;7.932;2023-07-13T06:01:43;2.90;;;2.80;;
32082;SDS011;18597;48.328;7.932;2023-07-13T06:04:09;3.13;;;2.20;;
32082;SDS011;18597;48.328;7.932;2023-07-13T06:06:35;2.37;;;2.20;;
32082;SDS011;18597;48.328;7.932;2023-07-13T06:09:01;1.87;;;1.73;;
32082;SDS011;18597;48.328;7.932;2023-07-13T06:11:27;2.00;;;1.90;;
32082;SDS011;18597;48.328;7.932;2023-07-13T06:13:55;2.30;;;2.10;;
32082;SDS011;18597;48.328;7.932;2023-07-13T06:16:21;2.60;;;2.40;;
32082;SDS011;18597;48.328;7.932;2023-07-13T06:18:48;3.90;;;1.90;;
32082;SDS011;18597;48.328;7.932;2023-07-13T06:21:16;7.17;;;2.87;;
32082;SDS011;18597;48.328;7.932;2023-07-13T06:23:46;7.43;;;2.00;;
32082;SDS011;18597;48.328;7.932;2023-07-13T06:26:15;3.83;;;1.70;;
32082;SDS011;18597;48.328;7.932;2023-07-13T06:28:45;2.15;;;1.50;;
32082;SDS011;18597;48.328;7.932;2023-07-13T06:31:12;1.42;;;1.35;;
32082;SDS011;18597;48.328;7.932;2023-07-13T06:33:39;4.38;;;1.35;;
32082;SDS011;18597;48.328;7.932;2023-07-13T06:36:06;1.33;;;1.30;;
32082;SDS011;18597;48.328;7.932;2023-07-13T06:38:33;8.98;;;1.27;;
32082;SDS011;18597;48.328;7.932;2023-07-13T06:40:59;1.38;;;1.27;;
32082;SDS011;18597;48.328;7.932;2023-07-13T06:43:25;1.45;;;1.45;;
32082;SDS011;18597;48.328;7.932;2023-07-13T06:45:54;5.75;;;1.35;;
32082;SDS011;18597;48.328;7.932;2023-07-13T06:48:20;8.38;;;1.75;;
32082;SDS011;18597;48.328;7.932;2023-07-13T06:50:47;1.73;;;1.63;;
32082;SDS011;18597;48.328;7.932;2023-07-13T06:53:15;1.50;;;0.93;;
32082;SDS011;18597;48.328;7.932;2023-07-13T06:55:53;1.55;;;1.35;;
32082;SDS011;18597;48.328;7.932;2023-07-13T06:58:19;1.45;;;1.20;;
32082;SDS011;18597;48.328;7.932;2023-07-13T07:00:46;0.90;;;0.90;;
32082;SDS011;18597;48.328;7.932;2023-07-13T07:03:17;2.70;;;1.48;;
32082;SDS011;18597;48.328;7.932;2023-07-13T07:05:42;2.28;;;1.25;;
32082;SDS011;18597;48.328;7.932;2023-07-13T07:08:08;2.30;;;1.48;;
32082;SDS011;18597;48.328;7.932;2023-07-13T07:10:35;4.22;;;1.23;;
32082;SDS011;18597;48.328;7.932;2023-07-13T07:13:01;0.73;;;0.60;;
32082;SDS011;18597;48.328;7.932;2023-07-13T07:15:28;1.23;;;1.23;;
32082;SDS011;18597;48.328;7.932;2023-07-13T07:17:54;1.80;;;1.02;;
32082;SDS011;18597;48.328;7.932;2023-07-13T07:20:20;0.98;;;0.98;;
32082;SDS011;18597;48.328;7.932;2023-07-13T07:22:46;1.85;;;1.02;;
32082;SDS011;18597;48.328;7.932;2023-07-13T07:25:13;1.00;;;1.00;;
32082;SDS011;18597;48.328;7.932;2023-07-13T07:27:39;0.98;;;0.93;;
32082;SDS011;18597;48.328;7.932;2023-07-13T07:30:05;2.05;;;0.82;;
32082;SDS011;18597;48.328;7.932;2023-07-13T07:32:31;5.28;;;1.73;;
32082;SDS011;18597;48.328;7.932;2023-07-13T07:34:57;2.55;;;0.75;;
32082;SDS011;18597;48.328;7.932;2023-07-13T07:37:23;3.40;;;1.35;;
32082;SDS011;18597;48.328;7.932;2023-07-13T07:39:50;1.55;;;1.40;;
32082;SDS011;18597;48.328;7.932;2023-07-13T07:42:15;2.00;;;1.63;;
32082;SDS011;18597;48.328;7.932;2023-07-13T07:44:41;1.13;;;0.93;;
32082;SDS011;18597;48.328;7.932;2023-07-13T07:47:07;1.75;;;1.02;;
32082;SDS011;18597;48.328;7.932;2023-07-13T07:49:34;2.15;;;1.27;;
32082;SDS011;18597;48.328;7.932;2023-07-13T07:52:02;0.95;;;0.88;;
32082;SDS011;18597;48.328;7.932;2023-07-13T07:54:28;1.77;;;0.70;;
32082;SDS011;18597;48.328;7.932;2023-07-13T07:56:54;2.38;;;0.85;;
32082;SDS011;18597;48.328;7.932;2023-07-13T07:59:19;0.60;;;0.60;;
32082;SDS011;18597;48.328;7.932;2023-07-13T08:01:45;0.80;;;0.80;;
32082;SDS011;18597;48.328;7.932;2023-07-13T08:04:13;5.13;;;1.08;;
32082;SDS011;18597;48.328;7.932;2023-07-13T08:06:39;3.40;;;1.00;;
32082;SDS011;18597;48.328;7.932;2023-07-13T08:09:04;1.98;;;0.82;;
32082;SDS011;18597;48.328;7.932;2023-07-13T08:11:31;0.65;;;0.65;;
32082;SDS011;18597;48.328;7.932;2023-07-13T08:13:57;0.63;;;0.40;;
32082;SDS011;18597;48.328;7.932;2023-07-13T08:16:23;0.52;;;0.47;;
32082;SDS011;18597;48.328;7.932;2023-07-13T08:18:49;4.68;;;1.52;;
32082;SDS011;18597;48.328;7.932;2023-07-13T08:21:15;6.82;;;0.90;;
32082;SDS011;18597;48.328;7.932;2023-07-13T08:23:40;1.75;;;1.05;;
32082;SDS011;18597;48.328;7.932;2023-07-13T08:26:06;0.80;;;0.80;;
32082;SDS011;18597;48.328;7.932;2023-07-13T08:28:33;3.47;;;0.75;;
32082;SDS011;18597;48.328;7.932;2023-07-13T08:31:06;1.00;;;0.90;;
32082;SDS011;18597;48.328;7.932;2023-07-13T08:33:33;2.15;;;0.70;;
32082;SDS011;18597;48.328;7.932;2023-07-13T08:36:01;0.80;;;0.70;;
32082;SDS011;18597;48.328;7.932;2023-07-13T08:38:27;1.63;;;1.05;;
32082;SDS011;18597;48.328;7.932;2023-07-13T08:40:54;1.70;;;1.30;;
32082;SDS011;18597;48.328;7.932;2023-07-13T08:43:26;4.45;;;1.42;;
32082;SDS011;18597;48.328;7.932;2023-07-13T08:46:01;0.80;;;0.80;;
32082;SDS011;18597;48.328;7.932;2023-07-13T08:48:58;1.58;;;1.48;;
32082;SDS011;18597;48.328;7.932;2023-07-13T08:51:38;2.55;;;1.00;;
32082;SDS011;18597;48.328;7.932;2023-07-13T08:54:21;4.97;;;1.75;;
32082;SDS011;18597;48.328;7.932;2023-07-13T08:57:15;1.52;;;1.30;;
32082;SDS011;18597;48.328;7.932;2023-07-13T08:59:44;1.77;;;1.20;;
32082;SDS011;18597;48.328;7.932;2023-07-13T09:10:59;3.00;;;1.25;;
32082;SDS011;18597;48.328;7.932;2023-07-13T09:14:02;2.78;;;1.48;;
32082;SDS011;18597;48.328;7.932;2023-07-13T09:16:55;4.00;;;1.00;;
32082;SDS011;18597;48.328;7.932;2023-07-13T09:19:23;0.95;;;0.77;;
32082;SDS011;18597;48.328;7.932;2023-07-13T09:21:55;0.60;;;0.60;;
32082;SDS011;18597;48.328;7.932;2023-07-13T09:26:59;4.38;;;1.55;;
32082;SDS011;18597;48.328;7.932;2023-07-13T09:29:29;2.28;;;1.10;;
32082;SDS011;18597;48.328;7.932;2023-07-13T09:32:02;2.78;;;1.48;;
32082;SDS011;18597;48.328;7.932;2023-07-13T09:34:33;2.28;;;1.27;;
32082;SDS011;18597;48.328;7.932;2023-07-13T09:36:59;7.35;;;1.17;;
32082;SDS011;18597;48.328;7.932;2023-07-13T09:39:27;3.92;;;1.10;;
32082;SDS011;18597;48.328;7.932;2023-07-13T09:45:01;0.90;;;0.90;;
32082;SDS011;18597;48.328;7.932;2023-07-13T09:47:28;1.63;;;1.30;;
32082;SDS011;18597;48.328;7.932;2023-07-13T09:49:59;1.03;;;0.97;;
32082;SDS011;18597;48.328;7.932;2023-07-13T09:52:28;3.13;;;1.27;;
32082;SDS011;18597;48.328;7.932;2023-07-13T09:55:45;9.93;;;0.97;;
32082;SDS011;18597;48.328;7.932;2023-07-13T09:58:03;3.03;;;1.37;;
32082;SDS011;18597;48.328;7.932;2023-07-13T10:00:35;3.00;;;1.23;;
32082;SDS011;18597;48.328;7.932;2023-07-13T10:03:04;3.77;;;1.23;;
32082;SDS011;18597;48.328;7.932;2023-07-13T10:06:09;8.90;;;1.33;;
32082;SDS011;18597;48.328;7.932;2023-07-13T10:08:39;3.30;;;1.40;;
32082;SDS011;18597;48.328;7.932;2023-07-13T10:11:37;5.20;;;1.43;;
32082;SDS011;18597;48.328;7.932;2023-07-13T10:13:57;4.70;;;2.20;;
32082;SDS011;18597;48.328;7.932;2023-07-13T10:16:29;2.30;;;1.50;;
32082;SDS011;18597;48.328;7.932;2023-07-13T10:18:58;6.03;;;1.67;;
32082;SDS011;18597;48.328;7.932;2023-07-13T10:24:22;5.50;;;1.70;;
32082;SDS011;18597;48.328;7.932;2023-07-13T10:27:09;2.67;;;1.30;;
32082;SDS011;18597;48.328;7.932;2023-07-13T10:29:48;0.87;;;0.83;;
32082;SDS011;18597;48.328;7.932;2023-07-13T10:32:21;1.53;;;1.23;;
32082;SDS011;18597;48.328;7.932;2023-07-13T10:34:50;6.53;;;1.20;;
32082;SDS011;18597;48.328;7.932;2023-07-13T10:37:19;3.40;;;1.33;;
32082;SDS011;18597;48.328;7.932;2023-07-13T10:39:50;7.20;;;2.13;;
32082;SDS011;18597;48.328;7.932;2023-07-13T10:42:25;2.37;;;1.20;;
32082;SDS011;18597;48.328;7.932;2023-07-13T10:45:00;1.80;;;0.90;;
32082;SDS011;18597;48.328;7.932;2023-07-13T10:47:26;2.27;;;1.50;;
32082;SDS011;18597;48.328;7.932;2023-07-13T10:49:53;8.70;;;1.50;;
32082;SDS011;18597;48.328;7.932;2023-07-13T10:52:41;5.93;;;1.63;;
32082;SDS011;18597;48.328;7.932;2023-07-13T10:55:37;5.33;;;1.43;;
32082;SDS011;18597;48.328;7.932;2023-07-13T10:58:23;3.77;;;1.77;;
32082;SDS011;18597;48.328;7.932;2023-07-13T11:01:09;8.20;;;1.90;;
32082;SDS011;18597;48.328;7.932;2023-07-13T11:03:49;3.37;;;1.13;;
32082;SDS011;18597;48.328;7.932;2023-07-13T11:09:52;1.33;;;1.00;;
32082;SDS011;18597;48.328;7.932;2023-07-13T11:11:59;1.83;;;1.17;;
32082;SDS011;18597;48.328;7.932;2023-07-13T11:17:37;5.67;;;1.30;;
32082;SDS011;18597;48.328;7.932;2023-07-13T11:22:50;2.63;;;1.33;;
32082;SDS011;18597;48.328;7.932;2023-07-13T11:25:32;3.53;;;1.00;;
32082;SDS011;18597;48.328;7.932;2023-07-13T11:30:48;1.33;;;1.10;;
32082;SDS011;18597;48.328;7.932;2023-07-13T11:33:22;4.17;;;0.90;;
32082;SDS011;18597;48.328;7.932;2023-07-13T11:36:12;1.60;;;1.20;;
32082;SDS011;18597;48.328;7.932;2023-07-13T11:38:42;2.40;;;0.80;;
32082;SDS011;18597;48.328;7.932;2023-07-13T11:41:14;5.83;;;1.70;;
32082;SDS011;18597;48.328;7.932;2023-07-13T11:43:44;3.07;;;1.60;;
32082;SDS011;18597;48.328;7.932;2023-07-13T11:46:15;0.77;;;0.77;;
32082;SDS011;18597;48.328;7.932;2023-07-13T11:48:50;2.40;;;1.27;;
32082;SDS011;18597;48.328;7.932;2023-07-13T11:51:19;1.57;;;1.40;;
32082;SDS011;18597;48.328;7.932;2023-07-13T11:53:58;4.10;;;1.67;;
32082;SDS011;18597;48.328;7.932;2023-07-13T11:56:30;4.37;;;1.20;;
32082;SDS011;18597;48.328;7.932;2023-07-13T11:58:59;6.23;;;1.17;;
32082;SDS011;18597;48.328;7.932;2023-07-13T12:01:32;5.60;;;1.40;;
32082;SDS011;18597;48.328;7.932;2023-07-13T12:04:02;7.23;;;0.83;;
32082;SDS011;18597;48.328;7.932;2023-07-13T12:09:03;1.03;;;0.87;;
32082;SDS011;18597;48.328;7.932;2023-07-13T12:11:41;3.80;;;0.80;;
32082;SDS011;18597;48.328;7.932;2023-07-13T12:14:16;8.50;;;1.40;;
32082;SDS011;18597;48.328;7.932;2023-07-13T12:16:44;2.93;;;1.33;;
32082;SDS011;18597;48.328;7.932;2023-07-13T12:19:21;3.20;;;1.00;;
32082;SDS011;18597;48.328;7.932;2023-07-13T12:21:50;5.83;;;1.10;;
32082;SDS011;18597;48.328;7.932;2023-07-13T12:24:21;1.03;;;1.00;;
32082;SDS011;18597;48.328;7.932;2023-07-13T12:26:52;3.97;;;1.00;;
32082;SDS011;18597;48.328;7.932;2023-07-13T12:29:25;2.40;;;0.80;;
32082;SDS011;18597;48.328;7.932;2023-07-13T12:31:51;1.90;;;0.93;;
32082;SDS011;18597;48.328;7.932;2023-07-13T12:34:18;1.20;;;1.20;;
32082;SDS011;18597;48.328;7.932;2023-07-13T12:36:55;3.10;;;1.57;;
32082;SDS011;18597;48.328;7.932;2023-07-13T12:39:55;3.93;;;1.10;;
32082;SDS011;18597;48.328;7.932;2023-07-13T12:42:16;11.53;;;1.37;;
32082;SDS011;18597;48.328;7.932;2023-07-13T12:44:54;10.67;;;1.20;;
32082;SDS011;18597;48.328;7.932;2023-07-13T12:47:26;4.40;;;1.23;;
32082;SDS011;18597;48.328;7.932;2023-07-13T12:49:54;4.77;;;1.37;;
32082;SDS011;18597;48.328;7.932;2023-07-13T12:52:24;4.53;;;1.37;;
32082;SDS011;18597;48.328;7.932;2023-07-13T12:54:59;10.37;;;1.30;;
32082;SDS011;18597;48.328;7.932;2023-07-13T12:57:41;5.50;;;1.30;;
32082;SDS011;18597;48.328;7.932;2023-07-13T13:00:22;0.80;;;0.80;;
32082;SDS011;18597;48.328;7.932;2023-07-13T13:02:57;3.00;;;1.10;;
32082;SDS011;18597;48.328;7.932;2023-07-13T13:05:32;2.20;;;1.20;;
32082;SDS011;18597;48.328;7.932;2023-07-13T13:07:59;4.27;;;1.40;;
32082;SDS011;18597;48.328;7.932;2023-07-13T13:10:25;4.37;;;1.40;;
32082;SDS011;18597;48.328;7.932;2023-07-13T13:12:51;2.97;;;1.10;;
32082;SDS011;18597;48.328;7.932;2023-07-13T13:15:18;1.70;;;1.60;;
32082;SDS011;18597;48.328;7.932;2023-07-13T13:17:44;4.40;;;0.90;;
32082;SDS011;18597;48.328;7.932;2023-07-13T13:20:25;1.63;;;1.20;;
32082;SDS011;18597;48.328;7.932;2023-07-13T13:22:51;4.90;;;1.30;;
32082;SDS011;18597;48.328;7.932;2023-07-13T13:25:17;1.30;;;1.17;;
32082;SDS011;18597;48.328;7.932;2023-07-13T13:27:44;3.07;;;1.50;;
32082;SDS011;18597;48.328;7.932;2023-07-13T13:30:11;1.23;;;1.03;;
32082;SDS011;18597;48.328;7.932;2023-07-13T13:32:41;2.60;;;1.00;;
32082;SDS011;18597;48.328;7.932;2023-07-13T13:35:14;2.70;;;1.67;;
32082;SDS011;18597;48.328;7.932;2023-07-13T13:37:42;1.70;;;1.57;;
32082;SDS011;18597;48.328;7.932;2023-07-13T13:40:24;1.80;;;1.50;;
32082;SDS011;18597;48.328;7.932;2023-07-13T13:42:52;2.40;;;1.13;;
32082;SDS011;18597;48.328;7.932;2023-07-13T13:45:20;8.03;;;0.90;;
32082;SDS011;18597;48.328;7.932;2023-07-13T13:47:46;1.80;;;1.20;;
32082;SDS011;18597;48.328;7.932;2023-07-13T13:50:14;4.10;;;0.93;;
32082;SDS011;18597;48.328;7.932;2023-07-13T13:52:47;3.60;;;1.00;;
32082;SDS011;18597;48.328;7.932;2023-07-13T13:55:14;1.43;;;1.27;;
32082;SDS011;18597;48.328;7.932;2023-07-13T13:57:42;4.93;;;2.00;;
32082;SDS011;18597;48.328;7.932;2023-07-13T14:00:09;4.17;;;1.27;;
32082;SDS011;18597;48.328;7.932;2023-07-13T14:02:40;1.47;;;0.93;;
32082;SDS011;18597;48.328;7.932;2023-07-13T14:05:12;5.20;;;1.27;;
32082;SDS011;18597;48.328;7.932;2023-07-13T14:07:41;5.30;;;1.80;;
32082;SDS011;18597;48.328;7.932;2023-07-13T14:10:11;3.40;;;1.47;;
32082;SDS011;18597;48.328;7.932;2023-07-13T14:12:41;3.47;;;1.80;;
32082;SDS011;18597;48.328;7.932;2023-07-13T14:15:15;1.20;;;1.20;;
32082;SDS011;18597;48.328;7.932;2023-07-13T14:17:47;2.73;;;2.57;;
32082;SDS011;18597;48.328;7.932;2023-07-13T14:20:15;5.70;;;3.97;;
32082;SDS011;18597;48.328;7.932;2023-07-13T14:22:43;14.23;;;2.80;;
32082;SDS011;18597;48.328;7.932;2023-07-13T14:25:10;4.93;;;1.77;;
32082;SDS011;18597;48.328;7.932;2023-07-13T14:27:40;4.63;;;1.00;;
32082;SDS011;18597;48.328;7.932;2023-07-13T14:30:15;2.67;;;1.00;;
32082;SDS011;18597;48.328;7.932;2023-07-13T14:32:45;1.60;;;1.50;;
32082;SDS011;18597;48.328;7.932;2023-07-13T14:35:11;4.43;;;3.40;;
32082;SDS011;18597;48.328;7.932;2023-07-13T14:37:39;4.63;;;2.23;;
32082;SDS011;18597;48.328;7.932;2023-07-13T14:40:14;7.63;;;2.00;;
32082;SDS011;18597;48.328;7.932;2023-07-13T14:42:42;3.37;;;2.20;;
32082;SDS011;18597;48.328;7.932;2023-07-13T14:45:17;6.13;;;3.60;;
32082;SDS011;18597;48.328;7.932;2023-07-13T14:47:45;1.90;;;1.80;;
32082;SDS011;18597;48.328;7.932;2023-07-13T14:50:14;5.30;;;2.17;;
32082;SDS011;18597;48.328;7.932;2023-07-13T14:52:44;1.50;;;1.40;;
32082;SDS011;18597;48.328;7.932;2023-07-13T14:55:14;1.07;;;0.80;;
32082;SDS011;18597;48.328;7.932;2023-07-13T14:57:44;3.13;;;1.67;;
32082;SDS011;18597;48.328;7.932;2023-07-13T15:00:13;2.47;;;2.27;;
32082;SDS011;18597;48.328;7.932;2023-07-13T15:02:44;3.57;;;1.17;;
32082;SDS011;18597;48.328;7.932;2023-07-13T15:05:16;6.50;;;2.00;;
32082;SDS011;18597;48.328;7.932;2023-07-13T15:07:45;1.23;;;1.00;;
32082;SDS011;18597;48.328;7.932;2023-07-13T15:10:12;2.87;;;1.17;;
32082;SDS011;18597;48.328;7.932;2023-07-13T15:12:44;2.10;;;0.90;;
32082;SDS011;18597;48.328;7.932;2023-07-13T15:15:10;2.10;;;1.83;;
32082;SDS011;18597;48.328;7.932;2023-07-13T15:17:38;3.53;;;1.40;;
32082;SDS011;18597;48.328;7.932;2023-07-13T15:20:14;5.93;;;1.10;;
32082;SDS011;18597;48.328;7.932;2023-07-13T15:22:52;2.20;;;1.10;;
32082;SDS011;18597;48.328;7.932;2023-07-13T15:25:19;4.80;;;1.47;;
32082;SDS011;18597;48.328;7.932;2023-07-13T15:27:49;2.07;;;0.73;;
32082;SDS011;18597;48.328;7.932;2023-07-13T15:30:16;1.37;;;0.90;;
32082;SDS011;18597;48.328;7.932;2023-07-13T15:32:43;1.10;;;1.10;;
32082;SDS011;18597;48.328;7.932;2023-07-13T15:35:18;5.57;;;1.30;;